Time;durP1;ratioP1;P1;durP2;ratioP2;P2;SDS_P1;SDS_P2;PMS_P1;PMS_P2;Temp;Humidity;BMP_temperature;BMP_pressure;BME280_temperature;BME280_humidity;BME280_pressure;Samples;Min_cycle;Max_cycle;Signal;HPM_P1;HPM_P2
2022/11/08 00:02:48;;;;;;;4.13;2.07;;;14.90;99.90;;;;;;5026271;28;20295;-30
2022/11/08 00:13:59;;;;;;;4.10;1.83;;;14.80;99.90;;;;;;5026816;28;20209;-28
2022/11/08 00:16:27;;;;;;;6.50;2.50;;;14.80;99.90;;;;;;5026578;28;20704;-28
2022/11/08 00:18:54;;;;;;;5.47;1.97;;;14.70;99.90;;;;;;5024984;28;20212;-29
2022/11/08 00:21:22;;;;;;;5.17;1.80;;;14.70;99.90;;;;;;5024695;28;20204;-28
2022/11/08 00:23:49;;;;;;;4.77;1.90;;;14.70;99.90;;;;;;5026695;28;20204;-29
2022/11/08 00:26:16;;;;;;;6.60;2.17;;;14.70;99.90;;;;;;5023488;28;20208;-29
2022/11/08 00:28:43;;;;;;;9.50;2.27;;;14.70;99.90;;;;;;5023772;28;20205;-28
2022/11/08 00:31:10;;;;;;;6.67;1.80;;;14.70;99.90;;;;;;5026029;28;20438;-28
2022/11/08 00:33:37;;;;;;;3.97;1.60;;;14.70;99.90;;;;;;5026245;28;20227;-29
2022/11/08 00:36:07;;;;;;;5.47;2.30;;;14.70;99.90;;;;;;5024361;28;20292;-29
2022/11/08 00:38:34;;;;;;;7.07;1.90;;;14.70;99.90;;;;;;5026300;28;20201;-29
2022/11/08 00:41:02;;;;;;;5.90;1.90;;;14.70;99.90;;;;;;5024292;28;20219;-28
2022/11/08 00:43:29;;;;;;;7.93;2.20;;;14.60;99.90;;;;;;5026256;28;20578;-29
2022/11/08 00:45:58;;;;;;;3.80;1.50;;;14.70;99.90;;;;;;5025740;28;20675;-29
2022/11/08 00:48:25;;;;;;;3.70;1.83;;;14.60;99.90;;;;;;5026071;28;20232;-29
2022/11/08 00:50:52;;;;;;;4.93;1.80;;;14.60;99.90;;;;;;5025088;28;20205;-29
2022/11/08 00:53:19;;;;;;;4.23;1.63;;;14.60;99.90;;;;;;5026755;28;20201;-29
2022/11/08 00:55:46;;;;;;;4.90;1.60;;;14.60;99.90;;;;;;5022852;28;20216;-29
2022/11/08 00:58:13;;;;;;;5.93;1.80;;;14.60;99.90;;;;;;5025393;28;20201;-29
2022/11/08 01:00:41;;;;;;;3.63;1.60;;;14.60;99.90;;;;;;5025966;28;20668;-29
2022/11/08 01:03:18;;;;;;;4.87;2.07;;;14.50;99.90;;;;;;5010422;28;20220;-29
2022/11/08 01:05:46;;;;;;;3.97;1.70;;;14.50;99.90;;;;;;5024952;28;20208;-29
2022/11/08 01:08:14;;;;;;;6.33;1.70;;;14.50;99.90;;;;;;5025737;28;20583;-29
2022/11/08 01:10:47;;;;;;;2.67;1.50;;;14.50;99.90;;;;;;5024621;28;20220;-29
2022/11/08 01:13:15;;;;;;;3.83;1.90;;;14.50;99.90;;;;;;5025656;28;20196;-28
2022/11/08 01:15:44;;;;;;;4.63;1.67;;;14.50;99.90;;;;;;5025440;28;20215;-28
2022/11/08 01:18:15;;;;;;;5.33;1.77;;;14.40;99.90;;;;;;5025565;28;20235;-28
2022/11/08 01:20:47;;;;;;;4.63;1.80;;;14.40;99.90;;;;;;5025621;28;20212;-29
2022/11/08 01:23:17;;;;;;;4.47;1.50;;;14.40;99.90;;;;;;5025846;28;20189;-29
2022/11/08 01:25:47;;;;;;;6.13;1.97;;;14.40;99.90;;;;;;5021062;28;20733;-28
2022/11/08 01:28:15;;;;;;;3.40;1.70;;;14.40;99.90;;;;;;5025384;28;20188;-29
2022/11/08 01:30:44;;;;;;;4.53;1.63;;;14.40;99.90;;;;;;5025464;28;20212;-28
2022/11/08 01:33:12;;;;;;;3.80;1.57;;;14.40;99.90;;;;;;5024532;28;20193;-28
2022/11/08 01:35:42;;;;;;;5.30;1.50;;;14.40;99.90;;;;;;5024847;28;20221;-28
2022/11/08 01:38:09;;;;;;;3.73;1.50;;;14.40;99.90;;;;;;5025545;28;20598;-28
2022/11/08 01:40:45;;;;;;;3.93;1.40;;;14.40;99.90;;;;;;5024474;28;20216;-29
2022/11/08 01:43:38;;;;;;;4.67;1.77;;;14.40;99.90;;;;;;5025289;28;20196;-28
2022/11/08 01:46:11;;;;;;;6.10;1.87;;;14.40;99.90;;;;;;5022700;28;20603;-29
2022/11/08 01:48:44;;;;;;;5.03;1.70;;;14.40;99.90;;;;;;5025210;28;20327;-29
2022/11/08 01:51:13;;;;;;;3.80;1.57;;;14.30;99.90;;;;;;5025156;28;20189;-29
2022/11/08 01:53:40;;;;;;;4.77;1.80;;;14.30;99.90;;;;;;5025757;28;20215;-29
2022/11/08 01:56:12;;;;;;;4.87;1.80;;;14.30;99.90;;;;;;5023131;28;20236;-28
2022/11/08 01:58:42;;;;;;;5.77;1.53;;;14.30;99.90;;;;;;5021180;28;20229;-29
2022/11/08 02:01:12;;;;;;;3.70;1.53;;;14.30;99.90;;;;;;5018218;28;20329;-29
2022/11/08 02:03:40;;;;;;;5.53;1.70;;;14.30;99.90;;;;;;5029122;28;20204;-28
2022/11/08 02:06:09;;;;;;;4.83;1.90;;;14.20;99.90;;;;;;5043479;28;20213;-29
2022/11/08 02:08:41;;;;;;;4.70;1.80;;;14.20;99.90;;;;;;5025689;28;20213;-29
2022/11/08 02:11:15;;;;;;;5.33;1.80;;;14.20;99.90;;;;;;5025183;28;20228;-28
2022/11/08 02:13:42;;;;;;;5.63;2.00;;;14.10;99.90;;;;;;5025285;28;20239;-28
2022/11/08 02:16:16;;;;;;;4.97;1.70;;;14.10;99.90;;;;;;5024088;28;20205;-28
2022/11/08 02:18:46;;;;;;;3.33;1.70;;;14.10;99.90;;;;;;5012082;28;20220;-28
2022/11/08 02:21:31;;;;;;;4.00;1.73;;;14.10;99.90;;;;;;5023323;28;20299;-29
2022/11/08 02:24:09;;;;;;;3.03;2.10;;;14.10;99.90;;;;;;5025236;28;20196;-29
2022/11/08 02:26:38;;;;;;;4.80;1.30;;;14.00;99.90;;;;;;5025164;28;20250;-29
2022/11/08 02:29:22;;;;;;;3.10;1.27;;;14.00;99.90;;;;;;5026068;28;20251;-29
2022/11/08 02:31:49;;;;;;;5.60;1.50;;;14.00;99.90;;;;;;5028924;28;20193;-29
2022/11/08 02:34:17;;;;;;;3.63;1.57;;;14.00;99.90;;;;;;5027948;28;20201;-28
2022/11/08 02:36:48;;;;;;;1.87;1.20;;;14.00;99.90;;;;;;5024603;28;20316;-29
2022/11/08 02:39:15;;;;;;;3.20;1.20;;;14.00;99.90;;;;;;5028433;28;20694;-28
2022/11/08 02:41:44;;;;;;;4.57;1.67;;;14.00;99.90;;;;;;5027708;28;20209;-29
2022/11/08 02:44:12;;;;;;;3.10;1.20;;;14.00;99.90;;;;;;5027176;28;20212;-29
2022/11/08 02:46:41;;;;;;;5.87;1.90;;;14.00;99.90;;;;;;5026899;28;20286;-29
2022/11/08 02:49:08;;;;;;;4.10;1.50;;;14.00;99.90;;;;;;5028490;28;20266;-29
2022/11/08 02:51:35;;;;;;;3.57;1.37;;;14.00;99.90;;;;;;5026307;28;20211;-29
2022/11/08 02:54:03;;;;;;;3.57;1.40;;;14.00;99.90;;;;;;5028795;28;20209;-28
2022/11/08 02:56:30;;;;;;;3.77;1.40;;;14.00;99.90;;;;;;5025282;28;20220;-28
2022/11/08 02:58:57;;;;;;;2.33;1.30;;;13.90;99.90;;;;;;5028583;28;20197;-29
2022/11/08 03:01:24;;;;;;;2.67;1.50;;;13.90;99.90;;;;;;5028211;28;20671;-29
2022/11/08 03:03:54;;;;;;;4.07;1.20;;;13.90;99.90;;;;;;5028559;28;20223;-29
2022/11/08 03:06:21;;;;;;;4.27;1.67;;;13.90;99.90;;;;;;5027345;28;20213;-28
2022/11/08 03:08:48;;;;;;;1.93;1.00;;;13.90;99.90;;;;;;5027340;28;20693;-28
2022/11/08 03:11:16;;;;;;;5.73;1.90;;;13.90;99.90;;;;;;5027476;28;20216;-28
2022/11/08 03:13:43;;;;;;;6.63;1.87;;;13.90;99.90;;;;;;5028190;28;20205;-29
2022/11/08 03:16:10;;;;;;;4.80;1.50;;;13.90;99.90;;;;;;5028086;28;20580;-28
2022/11/08 03:18:37;;;;;;;3.77;1.73;;;13.90;99.90;;;;;;5028040;28;20209;-28
2022/11/08 03:21:04;;;;;;;4.77;1.57;;;13.90;99.90;;;;;;5027712;28;20197;-29
2022/11/08 03:23:32;;;;;;;3.17;1.60;;;13.90;99.90;;;;;;5026870;28;20227;-29
2022/11/08 03:26:03;;;;;;;3.20;1.50;;;13.90;99.90;;;;;;5026432;28;20224;-29
2022/11/08 03:28:30;;;;;;;3.80;1.50;;;13.90;99.90;;;;;;5026983;28;20576;-28
2022/11/08 03:31:00;;;;;;;4.70;1.00;;;13.80;99.90;;;;;;5027519;28;20227;-28
2022/11/08 03:33:27;;;;;;;4.17;1.50;;;13.80;99.90;;;;;;5027589;28;20193;-28
2022/11/08 03:35:54;;;;;;;4.43;1.43;;;13.80;99.90;;;;;;5026640;28;20224;-29
2022/11/08 03:38:21;;;;;;;3.00;1.47;;;13.80;99.90;;;;;;5027661;28;20707;-29
2022/11/08 03:40:48;;;;;;;2.60;1.30;;;13.80;99.90;;;;;;5025778;28;20212;-28
2022/11/08 03:43:15;;;;;;;2.70;1.40;;;13.70;99.90;;;;;;5027138;28;20212;-28
2022/11/08 03:45:44;;;;;;;5.00;1.20;;;13.70;99.90;;;;;;5027214;28;20224;-28
2022/11/08 03:48:14;;;;;;;4.73;1.27;;;13.70;99.90;;;;;;5027689;28;20320;-28
2022/11/08 03:50:41;;;;;;;2.17;1.00;;;13.70;99.90;;;;;;5026813;28;20225;-28
2022/11/08 03:53:08;;;;;;;2.13;1.10;;;13.70;99.90;;;;;;5026788;28;20687;-29
2022/11/08 03:55:36;;;;;;;3.90;1.20;;;13.70;99.90;;;;;;5026005;28;20654;-28
2022/11/08 03:58:03;;;;;;;3.03;1.10;;;13.70;99.90;;;;;;5026490;28;20668;-29
2022/11/08 04:00:30;;;;;;;4.13;1.30;;;13.70;99.90;;;;;;5026094;28;20196;-29
2022/11/08 04:03:02;;;;;;;4.43;1.53;;;13.70;99.90;;;;;;5027329;28;20205;-29
2022/11/08 04:05:33;;;;;;;3.93;1.33;;;13.70;99.90;;;;;;5027459;28;20642;-29
2022/11/08 04:08:03;;;;;;;2.57;1.20;;;13.70;99.90;;;;;;5026412;28;20592;-28
2022/11/08 04:10:30;;;;;;;3.03;1.40;;;13.70;99.90;;;;;;5026201;28;20216;-28
2022/11/08 04:15:50;;;;;;;3.73;1.40;;;13.60;99.90;;;;;;5026927;28;20204;-29
2022/11/08 04:21:18;;;;;;;3.10;1.20;;;13.60;99.90;;;;;;5025728;28;20295;-29
2022/11/08 04:23:46;;;;;;;3.00;1.10;;;13.60;99.90;;;;;;5026713;28;20189;-28
2022/11/08 04:26:14;;;;;;;3.37;1.37;;;13.60;99.90;;;;;;5025269;28;20233;-28
2022/11/08 04:28:43;;;;;;;2.73;1.20;;;13.60;99.90;;;;;;5025431;28;20259;-28
2022/11/08 04:31:15;;;;;;;4.30;1.53;;;13.60;99.90;;;;;;5025870;28;20682;-28
2022/11/08 04:33:42;;;;;;;3.37;1.53;;;13.60;99.90;;;;;;5009795;28;20209;-29
2022/11/08 04:36:12;;;;;;;2.53;1.13;;;13.60;99.90;;;;;;5005378;28;20211;-29
2022/11/08 04:38:39;;;;;;;2.93;1.10;;;13.60;99.90;;;;;;5006608;28;20772;-29
2022/11/08 04:41:10;;;;;;;3.80;1.20;;;13.60;99.90;;;;;;5006099;28;20208;-28
2022/11/08 04:43:37;;;;;;;2.23;1.17;;;13.60;99.90;;;;;;5006882;28;20190;-29
2022/11/08 04:46:21;;;;;;;2.67;0.97;;;13.60;99.90;;;;;;5010063;28;20228;-28
2022/11/08 04:48:51;;;;;;;2.33;1.20;;;13.60;99.90;;;;;;5023539;28;20711;-28
2022/11/08 04:51:21;;;;;;;3.13;1.10;;;13.60;99.90;;;;;;5025237;28;20221;-28
2022/11/08 04:53:49;;;;;;;2.23;1.23;;;13.60;99.90;;;;;;5025946;28;20212;-28
2022/11/08 04:56:18;;;;;;;3.90;1.20;;;13.60;99.90;;;;;;5024576;28;20205;-28
2022/11/08 04:58:48;;;;;;;2.60;1.10;;;13.60;99.90;;;;;;5025957;28;20714;-28
2022/11/08 05:01:20;;;;;;;1.50;1.07;;;13.60;99.90;;;;;;5023702;28;20217;-29
2022/11/08 05:03:51;;;;;;;2.97;1.23;;;13.60;99.90;;;;;;5025712;28;20211;-29
2022/11/08 05:06:24;;;;;;;2.07;1.30;;;13.60;99.90;;;;;;5025084;28;20594;-29
2022/11/08 05:08:52;;;;;;;2.40;1.03;;;13.60;99.90;;;;;;5025654;28;20203;-29
2022/11/08 05:11:22;;;;;;;2.03;1.00;;;13.60;99.90;;;;;;5024642;28;20216;-29
2022/11/08 05:13:50;;;;;;;2.20;1.07;;;13.60;99.90;;;;;;5026154;28;20204;-29
2022/11/08 05:16:23;;;;;;;1.83;1.10;;;13.60;99.90;;;;;;5024656;28;20212;-29
2022/11/08 05:18:50;;;;;;;3.70;1.37;;;13.60;99.90;;;;;;5024619;28;20298;-28
2022/11/08 05:24:08;;;;;;;1.83;1.17;;;13.50;99.90;;;;;;5024226;28;20200;-29
2022/11/08 05:26:41;;;;;;;3.33;1.30;;;13.50;99.90;;;;;;5023723;28;20222;-29
2022/11/08 05:29:11;;;;;;;3.67;1.47;;;13.50;99.90;;;;;;5025961;28;20193;-28
2022/11/08 05:31:39;;;;;;;3.30;1.50;;;13.50;99.90;;;;;;5026028;28;20202;-29
2022/11/08 05:34:06;;;;;;;3.83;1.20;;;13.50;99.90;;;;;;5024596;28;20201;-29
2022/11/08 05:36:34;;;;;;;2.17;1.27;;;13.50;99.90;;;;;;5025092;28;20660;-29
2022/11/08 05:39:03;;;;;;;2.50;1.60;;;13.50;99.90;;;;;;5019404;28;20296;-29
2022/11/08 05:41:32;;;;;;;3.17;1.50;;;13.50;99.90;;;;;;5021722;28;20655;-28
2022/11/08 05:44:02;;;;;;;2.03;1.40;;;13.50;99.90;;;;;;5022234;28;20209;-28
2022/11/08 05:46:32;;;;;;;2.13;1.40;;;13.50;99.90;;;;;;5022040;28;20607;-29
2022/11/08 05:49:02;;;;;;;4.07;1.50;;;13.50;99.90;;;;;;5017673;28;20767;-29
2022/11/08 05:51:30;;;;;;;3.30;1.30;;;13.50;99.90;;;;;;5017891;28;20675;-28
2022/11/08 05:54:00;;;;;;;2.93;1.10;;;13.50;99.90;;;;;;5020475;28;20210;-28
2022/11/08 05:56:27;;;;;;;4.23;1.27;;;13.50;99.90;;;;;;5023092;28;20212;-29
2022/11/08 05:58:54;;;;;;;3.77;1.57;;;13.50;99.90;;;;;;5018204;28;20205;-29
2022/11/08 06:01:21;;;;;;;3.00;1.30;;;13.50;99.90;;;;;;5024366;28;20304;-28
2022/11/08 06:03:49;;;;;;;3.70;1.37;;;13.50;99.90;;;;;;5024321;28;20279;-28
2022/11/08 06:06:19;;;;;;;2.77;1.30;;;13.60;99.90;;;;;;5022517;28;20220;-28
2022/11/08 06:08:47;;;;;;;2.83;1.40;;;13.50;99.90;;;;;;5020016;28;20207;-28
2022/11/08 06:11:20;;;;;;;2.43;1.30;;;13.50;99.90;;;;;;5020252;28;20203;-28
2022/11/08 06:13:50;;;;;;;2.10;1.33;;;13.50;99.90;;;;;;5018335;28;20601;-29
2022/11/08 06:16:21;;;;;;;2.00;1.13;;;13.50;99.90;;;;;;5016968;28;20216;-28
2022/11/08 06:18:49;;;;;;;3.40;1.40;;;13.50;99.90;;;;;;5017363;28;20264;-29
2022/11/08 06:25:57;;;;;;;3.37;1.20;;;13.60;99.90;;;;;;5016865;28;20231;-28
2022/11/08 06:28:26;;;;;;;3.20;1.20;;;13.50;99.90;;;;;;5021767;28;20208;-28
2022/11/08 06:30:53;;;;;;;2.17;1.53;;;13.50;99.90;;;;;;5020070;28;20193;-29
2022/11/08 06:33:20;;;;;;;2.80;1.20;;;13.50;99.90;;;;;;5015694;28;20691;-28
2022/11/08 06:35:50;;;;;;;1.33;1.10;;;13.50;99.90;;;;;;5019382;28;20715;-31
2022/11/08 06:38:19;;;;;;;2.13;1.20;;;13.50;99.90;;;;;;5019020;28;20201;-31
2022/11/08 06:40:49;;;;;;;3.13;1.40;;;13.50;99.90;;;;;;5025719;28;20205;-29
2022/11/08 06:43:19;;;;;;;2.60;1.57;;;13.50;99.90;;;;;;5031798;28;20205;-28
2022/11/08 06:45:49;;;;;;;4.00;1.30;;;13.50;99.90;;;;;;5021852;28;20233;-29
2022/11/08 06:48:16;;;;;;;4.33;1.50;;;13.50;99.90;;;;;;5028440;28;20857;-29
2022/11/08 06:50:43;;;;;;;3.43;1.67;;;13.50;99.90;;;;;;5025080;28;20220;-28
2022/11/08 06:53:12;;;;;;;3.07;1.53;;;13.50;99.90;;;;;;5022519;28;20568;-28
2022/11/08 06:55:41;;;;;;;3.90;1.40;;;13.60;99.90;;;;;;5041256;28;20710;-29
2022/11/08 06:58:09;;;;;;;2.60;1.47;;;13.60;99.90;;;;;;5023670;28;20204;-29
2022/11/08 07:00:36;;;;;;;2.97;1.70;;;13.60;99.90;;;;;;5031914;28;20258;-28
2022/11/08 07:03:08;;;;;;;3.97;1.40;;;13.50;99.90;;;;;;5026059;28;20597;-28
2022/11/08 07:05:36;;;;;;;5.43;1.30;;;13.50;99.90;;;;;;5013318;28;20304;-29
2022/11/08 07:08:03;;;;;;;2.83;1.40;;;13.60;99.90;;;;;;5020924;28;20654;-29
2022/11/08 07:10:33;;;;;;;5.20;1.57;;;13.60;99.90;;;;;;5008145;28;20205;-29
2022/11/08 07:13:12;;;;;;;4.57;1.43;;;13.60;99.90;;;;;;5029386;28;20611;-29
2022/11/08 07:15:40;;;;;;;3.57;2.07;;;13.60;99.90;;;;;;5028229;28;20570;-28
2022/11/08 07:18:10;;;;;;;3.17;1.43;;;13.60;99.90;;;;;;5024532;28;20188;-28
2022/11/08 07:20:43;;;;;;;4.13;1.50;;;13.60;99.90;;;;;;5023714;28;20235;-29
2022/11/08 07:23:13;;;;;;;3.47;1.30;;;13.60;99.90;;;;;;5035125;28;20212;-29
2022/11/08 07:25:43;;;;;;;2.97;1.50;;;13.60;99.90;;;;;;5027365;28;20210;-29
2022/11/08 07:28:16;;;;;;;3.80;1.40;;;13.60;99.90;;;;;;5021881;28;20197;-29
2022/11/08 07:30:45;;;;;;;3.83;1.30;;;13.70;99.90;;;;;;5002975;28;20299;-29
2022/11/08 07:33:12;;;;;;;4.63;1.53;;;13.70;99.90;;;;;;5023040;28;20630;-28
2022/11/08 07:35:40;;;;;;;2.67;1.30;;;13.70;99.90;;;;;;5024748;28;20288;-29
2022/11/08 07:38:07;;;;;;;5.27;1.30;;;13.70;99.90;;;;;;5015351;28;20572;-29
2022/11/08 07:40:36;;;;;;;1.90;1.23;;;13.70;99.90;;;;;;5022166;28;20237;-29
2022/11/08 07:43:08;;;;;;;3.00;1.50;;;13.80;99.90;;;;;;5026249;28;20212;-29
2022/11/08 07:45:41;;;;;;;1.43;1.30;;;13.80;99.90;;;;;;5026825;28;20776;-28
2022/11/08 07:48:15;;;;;;;4.70;1.60;;;13.80;99.90;;;;;;5017506;28;20530;-29
2022/11/08 07:50:42;;;;;;;4.80;1.63;;;13.80;99.90;;;;;;5025471;28;20364;-29
2022/11/08 07:53:09;;;;;;;3.87;1.70;;;13.80;99.90;;;;;;5016400;28;20290;-29
2022/11/08 07:55:38;;;;;;;3.03;1.60;;;13.90;99.90;;;;;;5028017;28;20208;-28
2022/11/08 07:58:07;;;;;;;2.67;1.30;;;13.90;99.90;;;;;;5010308;28;20665;-29
2022/11/08 08:00:39;;;;;;;2.17;1.33;;;13.90;99.90;;;;;;5021875;28;20212;-29
2022/11/08 08:03:08;;;;;;;5.00;1.53;;;14.00;99.90;;;;;;5026203;28;20205;-28
2022/11/08 08:05:41;;;;;;;2.83;1.17;;;14.00;99.90;;;;;;5020399;28;20225;-29
2022/11/08 08:08:10;;;;;;;1.50;1.30;;;14.00;99.90;;;;;;5023299;28;20247;-31
2022/11/08 08:10:38;;;;;;;3.17;1.60;;;14.00;99.90;;;;;;5036577;28;20232;-32
2022/11/08 08:13:07;;;;;;;2.20;1.13;;;14.10;99.90;;;;;;5012644;28;20207;-28
2022/11/08 08:15:39;;;;;;;4.90;1.43;;;14.10;99.90;;;;;;5022018;28;20210;-29
2022/11/08 08:18:10;;;;;;;2.13;1.43;;;14.10;99.90;;;;;;5022774;28;20226;-28
2022/11/08 08:20:37;;;;;;;2.03;1.10;;;14.20;99.90;;;;;;5026371;28;20211;-28
2022/11/08 08:23:07;;;;;;;2.53;1.40;;;14.20;99.90;;;;;;5025051;28;20225;-31
2022/11/08 08:25:34;;;;;;;5.30;1.50;;;14.30;99.90;;;;;;5021860;28;20231;-31
2022/11/08 08:28:01;;;;;;;1.93;1.30;;;14.30;99.90;;;;;;5032284;28;20220;-29
2022/11/08 08:30:33;;;;;;;4.03;1.50;;;14.30;99.90;;;;;;5043520;28;20239;-29
2022/11/08 08:33:05;;;;;;;3.73;1.50;;;14.40;99.90;;;;;;5043130;28;20616;-29
2022/11/08 08:36:00;;;;;;;2.20;1.40;;;14.40;99.90;;;;;;5020819;28;20205;-29
2022/11/08 08:38:32;;;;;;;3.00;1.63;;;14.40;99.90;;;;;;5022324;28;20752;-29
2022/11/08 08:41:02;;;;;;;2.50;1.80;;;14.50;99.90;;;;;;5031019;28;20243;-29
2022/11/08 08:43:33;;;;;;;2.90;1.57;;;14.50;99.90;;;;;;5023173;28;20204;-29
2022/11/08 08:46:02;;;;;;;3.63;1.60;;;14.60;99.90;;;;;;5033218;28;21034;-29
2022/11/08 08:48:30;;;;;;;34.77;5.50;;;14.70;99.90;;;;;;5034737;28;20310;-29
2022/11/08 08:50:57;;;;;;;39.97;6.10;;;14.70;99.90;;;;;;5042993;28;20204;-29
2022/11/08 08:53:26;;;;;;;19.10;3.57;;;14.70;99.90;;;;;;5043127;28;20343;-29
2022/11/08 08:55:53;;;;;;;7.97;1.90;;;14.80;99.90;;;;;;5020972;28;20639;-29
2022/11/08 08:58:23;;;;;;;3.83;1.90;;;14.90;99.90;;;;;;5023135;28;20263;-31
2022/11/08 09:00:50;;;;;;;3.80;1.57;;;14.90;99.90;;;;;;5044905;28;20215;-29
2022/11/08 09:03:40;;;;;;;3.67;1.63;;;15.00;99.90;;;;;;5043223;28;20208;-29
2022/11/08 09:06:12;;;;;;;4.33;1.40;;;15.00;99.90;;;;;;5018460;28;20243;-29
2022/11/08 09:08:39;;;;;;;17.80;3.23;;;15.10;99.90;;;;;;5025474;28;20212;-31
2022/11/08 09:11:06;;;;;;;21.83;6.40;;;15.10;99.90;;;;;;5015155;28;20638;-31
2022/11/08 09:13:36;;;;;;;13.27;3.57;;;15.10;99.90;;;;;;5017550;28;20296;-31
2022/11/08 09:16:06;;;;;;;8.13;2.53;;;15.20;99.90;;;;;;5027002;28;20766;-29
2022/11/08 09:18:34;;;;;;;18.97;4.80;;;15.20;99.90;;;;;;5025696;28;20387;-29
2022/11/08 09:21:03;;;;;;;19.93;4.50;;;15.20;99.90;;;;;;5020035;28;20267;-29
2022/11/08 09:23:30;;;;;;;8.17;2.70;;;15.30;99.90;;;;;;5016072;28;20232;-29
2022/11/08 09:26:01;;;;;;;8.53;2.87;;;15.30;99.90;;;;;;5021007;28;21032;-29
2022/11/08 09:28:30;;;;;;;23.77;4.87;;;15.40;99.90;;;;;;5045481;28;20242;-29
2022/11/08 09:31:03;;;;;;;15.20;2.97;;;15.40;99.90;;;;;;5042448;28;20196;-29
2022/11/08 09:33:31;;;;;;;9.60;2.37;;;15.50;99.90;;;;;;5022675;28;20627;-29
2022/11/08 09:36:05;;;;;;;6.63;1.77;;;15.50;99.90;;;;;;5040177;28;20231;-31
2022/11/08 09:38:33;;;;;;;6.97;1.77;;;15.50;99.90;;;;;;5047925;28;20231;-31
2022/11/08 09:41:15;;;;;;;7.47;2.00;;;15.60;99.90;;;;;;5033383;28;20292;-29
2022/11/08 09:44:06;;;;;;;3.23;1.60;;;15.60;99.90;;;;;;5026893;28;20519;-29
2022/11/08 09:46:55;;;;;;;4.60;2.00;;;15.60;99.90;;;;;;5026991;28;20227;-29
2022/11/08 09:49:45;;;;;;;3.93;1.50;;;15.70;99.90;;;;;;5017368;28;20777;-29
2022/11/08 09:52:26;;;;;;;5.20;1.77;;;15.70;99.90;;;;;;5032023;28;20309;-29
2022/11/08 09:55:29;;;;;;;5.33;1.70;;;15.80;99.90;;;;;;5027539;28;20300;-29
2022/11/08 09:58:26;;;;;;;2.47;1.63;;;15.80;99.90;;;;;;5026651;28;20693;-29
2022/11/08 10:00:57;;;;;;;4.77;1.67;;;15.90;99.90;;;;;;5025519;28;20212;-29
2022/11/08 10:03:27;;;;;;;4.00;1.60;;;15.90;99.90;;;;;;5014404;28;20282;-29
2022/11/08 10:06:19;;;;;;;6.63;2.53;;;16.00;99.90;;;;;;5023934;28;21020;-29
2022/11/08 10:09:15;;;;;;;4.60;1.60;;;16.00;99.90;;;;;;5021442;28;20320;-29
2022/11/08 10:11:57;;;;;;;9.30;3.63;;;16.10;99.90;;;;;;5021775;28;20263;-29
2022/11/08 10:14:36;;;;;;;8.13;2.70;;;16.10;99.90;;;;;;5015862;28;20197;-29
2022/11/08 10:17:25;;;;;;;10.93;3.50;;;16.20;99.90;;;;;;5025144;28;20244;-29
2022/11/08 10:20:01;;;;;;;5.73;2.27;;;16.20;99.90;;;;;;5018136;28;20311;-29
2022/11/08 10:23:00;;;;;;;4.50;1.83;;;16.30;99.90;;;;;;5025372;28;20221;-29
2022/11/08 10:25:37;;;;;;;5.90;2.20;;;16.30;99.90;;;;;;5035285;28;20224;-29
2022/11/08 10:28:06;;;;;;;5.50;2.00;;;16.30;99.90;;;;;;5041663;28;20251;-29
2022/11/08 10:30:40;;;;;;;5.23;1.90;;;16.40;99.90;;;;;;5034924;28;20628;-29
2022/11/08 10:33:19;;;;;;;3.90;1.70;;;16.40;99.90;;;;;;5034188;28;20208;-29
2022/11/08 10:35:48;;;;;;;4.77;1.90;;;16.50;99.90;;;;;;5036257;28;20204;-29
2022/11/08 10:38:29;;;;;;;4.30;1.90;;;16.50;99.90;;;;;;5045170;28;20646;-29
2022/11/08 10:41:26;;;;;;;4.67;2.00;;;16.50;99.90;;;;;;5028502;28;20213;-29
2022/11/08 10:44:20;;;;;;;2.97;1.73;;;16.60;99.90;;;;;;5020696;28;20225;-29
2022/11/08 10:47:02;;;;;;;3.30;1.50;;;16.60;99.90;;;;;;5034798;28;20220;-29
2022/11/08 10:49:38;;;;;;;5.87;1.30;;;16.70;99.90;;;;;;5045746;28;20258;-29
2022/11/08 10:52:25;;;;;;;5.50;2.10;;;16.80;99.90;;;;;;5034970;28;20212;-29
2022/11/08 10:54:54;;;;;;;5.03;1.97;;;16.80;99.90;;;;;;5017404;28;20296;-29
2022/11/08 10:57:30;;;;;;;2.60;1.80;;;16.90;99.90;;;;;;5023694;28;20283;-29
2022/11/08 11:00:16;;;;;;;5.23;2.70;;;17.00;99.90;;;;;;5016152;28;20275;-29
2022/11/08 11:02:49;;;;;;;3.50;1.90;;;17.00;99.90;;;;;;5037809;28;20204;-29
2022/11/08 11:05:27;;;;;;;2.33;1.73;;;17.10;99.90;;;;;;5016017;28;20243;-29
2022/11/08 11:07:59;;;;;;;2.83;1.90;;;17.10;99.90;;;;;;5043419;28;20219;-29
2022/11/08 11:10:39;;;;;;;2.70;1.60;;;17.20;99.90;;;;;;5029526;28;20212;-29
2022/11/08 11:13:28;;;;;;;3.60;1.63;;;17.30;99.90;;;;;;5029195;28;20647;-29
2022/11/08 11:15:55;;;;;;;3.50;1.57;;;17.30;99.90;;;;;;5023917;28;20232;-29
2022/11/08 11:18:32;;;;;;;3.03;1.80;;;17.30;99.90;;;;;;5036659;28;20679;-29
2022/11/08 11:21:10;;;;;;;3.80;1.80;;;17.40;99.90;;;;;;5029710;28;20302;-29
2022/11/08 11:23:53;;;;;;;3.43;1.63;;;17.50;99.90;;;;;;5026303;28;20196;-29
2022/11/08 11:26:31;;;;;;;4.23;1.73;;;17.50;99.90;;;;;;5034729;28;20221;-29
2022/11/08 11:29:05;;;;;;;3.50;1.40;;;17.60;99.90;;;;;;5017263;28;20217;-29
2022/11/08 11:31:40;;;;;;;2.38;1.35;;;17.50;99.90;;;;;;5021616;28;20258;-29
2022/11/08 11:34:16;;;;;;;3.65;1.75;;;17.60;99.90;;;;;;5030762;28;20295;-28
2022/11/08 11:36:48;;;;;;;3.70;1.73;;;17.60;99.90;;;;;;5030991;28;20517;-29
2022/11/08 11:39:48;;;;;;;3.90;1.63;;;17.60;99.90;;;;;;5024511;28;20620;-29
2022/11/08 11:42:42;;;;;;;3.93;1.30;;;17.60;99.90;;;;;;5035320;28;20200;-29
2022/11/08 11:45:37;;;;;;;2.83;1.58;;;17.60;99.90;;;;;;5021735;28;20225;-29
2022/11/08 11:48:13;;;;;;;3.87;1.43;;;17.60;99.90;;;;;;5016932;28;20317;-29
2022/11/08 11:50:45;;;;;;;3.13;1.70;;;17.60;99.90;;;;;;5017970;28;20270;-29
2022/11/08 11:53:18;;;;;;;5.10;2.03;;;17.60;99.90;;;;;;5025106;28;20710;-29
2022/11/08 11:56:10;;;;;;;4.37;1.70;;;17.60;99.90;;;;;;5016037;28;20284;-29
2022/11/08 11:58:58;;;;;;;7.20;2.22;;;17.60;99.90;;;;;;5024039;28;20215;-29
2022/11/08 12:02:13;;;;;;;5.57;2.17;;;17.70;99.90;;;;;;5022136;28;20220;-29
2022/11/08 12:05:14;;;;;;;4.05;1.92;;;17.70;99.90;;;;;;5008599;28;20222;-29
2022/11/08 12:08:04;;;;;;;3.78;1.80;;;17.70;99.90;;;;;;5029353;28;20228;-29
2022/11/08 12:10:38;;;;;;;2.57;1.47;;;17.70;99.90;;;;;;5030305;28;20308;-28
2022/11/08 12:13:11;;;;;;;5.07;1.83;;;17.70;99.90;;;;;;5038395;28;20206;-29
2022/11/08 12:15:43;;;;;;;3.77;1.80;;;17.70;99.90;;;;;;5021235;28;20200;-29
2022/11/08 12:18:29;;;;;;;4.82;1.63;;;17.70;99.90;;;;;;5037040;28;20220;-29
2022/11/08 12:21:19;;;;;;;3.97;1.63;;;17.70;99.90;;;;;;5032756;28;20211;-29
2022/11/08 12:23:49;;;;;;;3.77;1.80;;;17.70;99.90;;;;;;5038540;28;20211;-29
2022/11/08 12:26:25;;;;;;;6.37;1.80;;;17.80;99.90;;;;;;5044249;28;20224;-29
2022/11/08 12:29:16;;;;;;;3.13;1.75;;;17.80;99.90;;;;;;5041029;28;20266;-29
2022/11/08 12:31:51;;;;;;;5.18;1.80;;;17.90;99.90;;;;;;5023683;28;20205;-29
2022/11/08 12:34:21;;;;;;;5.03;1.80;;;17.90;99.90;;;;;;5027552;28;20560;-29
2022/11/08 12:36:55;;;;;;;4.47;2.03;;;17.90;99.90;;;;;;5019719;28;20204;-29
2022/11/08 12:39:31;;;;;;;2.90;1.60;;;17.90;99.90;;;;;;5020317;28;20205;-29
2022/11/08 12:42:16;;;;;;;4.70;2.20;;;17.90;99.90;;;;;;5027063;28;20197;-29
2022/11/08 12:45:13;;;;;;;4.70;1.80;;;17.90;99.90;;;;;;5040144;28;20212;-29
2022/11/08 12:48:06;;;;;;;2.45;1.52;;;17.90;99.90;;;;;;5032253;28;20276;-29
2022/11/08 12:50:52;;;;;;;4.63;1.80;;;17.90;99.90;;;;;;5023357;28;20295;-29
2022/11/08 12:53:57;;;;;;;6.40;1.60;;;17.90;99.90;;;;;;5006431;28;20293;-29
2022/11/08 12:56:36;;;;;;;5.03;1.60;;;17.90;99.90;;;;;;5028476;28;20202;-29
2022/11/08 12:59:20;;;;;;;4.13;1.73;;;17.90;99.90;;;;;;5027135;28;20226;-29
2022/11/08 13:01:51;;;;;;;3.07;1.30;;;17.90;99.90;;;;;;5030200;28;20215;-29
2022/11/08 13:04:26;;;;;;;4.28;1.85;;;17.90;99.90;;;;;;5024547;28;20295;-29
2022/11/08 13:07:04;;;;;;;2.45;1.52;;;18.00;99.90;;;;;;5021959;28;20200;-29
2022/11/08 13:09:55;;;;;;;4.38;1.60;;;18.00;99.90;;;;;;5017321;28;20329;-30
2022/11/08 13:12:47;;;;;;;3.88;1.80;;;18.10;99.90;;;;;;5023767;28;20239;-30
2022/11/08 13:15:27;;;;;;;5.63;1.60;;;18.10;99.90;;;;;;5027382;28;20228;-30
2022/11/08 13:18:06;;;;;;;4.43;1.63;;;18.10;99.90;;;;;;5043546;28;20546;-31
2022/11/08 13:20:45;;;;;;;3.87;1.67;;;18.10;99.90;;;;;;5036695;28;20212;-29
2022/11/08 13:23:24;;;;;;;3.47;1.47;;;18.10;99.90;;;;;;5044436;28;20710;-30
2022/11/08 13:25:52;;;;;;;4.67;1.80;;;18.20;99.90;;;;;;5033597;28;20216;-30
2022/11/08 13:28:42;;;;;;;5.70;1.90;;;18.20;99.90;;;;;;5025075;28;20229;-30
2022/11/08 13:31:29;;;;;;;4.00;1.73;;;18.20;99.90;;;;;;5032361;28;20640;-30
2022/11/08 13:34:35;;;;;;;4.07;1.67;;;18.20;99.90;;;;;;5045364;28;20550;-30
2022/11/08 13:37:35;;;;;;;2.67;2.00;;;18.30;99.90;;;;;;5037028;28;20216;-30
2022/11/08 13:40:19;;;;;;;5.53;1.67;;;18.30;99.90;;;;;;5022192;28;20205;-30